sensor_id;sensor_type;location;lat;lon;timestamp;P1;durP1;ratioP1;P2;durP2;ratioP2
52674;SDS011;38569;52.722;6.440;2022-12-29T00:01:53;5.82;;;5.22;;
52674;SDS011;38569;52.722;6.440;2022-12-29T00:04:20;5.80;;;5.00;;
52674;SDS011;38569;52.722;6.440;2022-12-29T00:06:46;6.88;;;4.50;;
52674;SDS011;38569;52.722;6.440;2022-12-29T00:09:12;6.28;;;4.78;;
52674;SDS011;38569;52.722;6.440;2022-12-29T00:11:38;5.60;;;4.95;;
52674;SDS011;38569;52.722;6.440;2022-12-29T00:14:04;7.63;;;4.85;;
52674;SDS011;38569;52.722;6.440;2022-12-29T00:16:48;6.53;;;4.88;;
52674;SDS011;38569;52.722;6.440;2022-12-29T00:19:14;6.05;;;5.00;;
52674;SDS011;38569;52.722;6.440;2022-12-29T00:21:58;10.38;;;5.68;;
52674;SDS011;38569;52.722;6.440;2022-12-29T00:27:27;6.97;;;4.80;;
52674;SDS011;38569;52.722;6.440;2022-12-29T00:30:13;8.45;;;4.93;;
52674;SDS011;38569;52.722;6.440;2022-12-29T00:33:12;6.30;;;4.10;;
52674;SDS011;38569;52.722;6.440;2022-12-29T00:38:53;5.05;;;4.43;;
52674;SDS011;38569;52.722;6.440;2022-12-29T00:41:42;6.85;;;4.43;;
52674;SDS011;38569;52.722;6.440;2022-12-29T00:44:26;6.13;;;4.68;;
52674;SDS011;38569;52.722;6.440;2022-12-29T00:46:52;6.35;;;4.35;;
52674;SDS011;38569;52.722;6.440;2022-12-29T00:49:18;5.93;;;4.55;;
52674;SDS011;38569;52.722;6.440;2022-12-29T00:51:56;7.78;;;5.13;;
52674;SDS011;38569;52.722;6.440;2022-12-29T00:54:25;5.20;;;3.95;;
52674;SDS011;38569;52.722;6.440;2022-12-29T00:56:52;5.78;;;4.28;;
52674;SDS011;38569;52.722;6.440;2022-12-29T00:59:18;6.15;;;3.70;;
52674;SDS011;38569;52.722;6.440;2022-12-29T01:01:45;6.47;;;3.70;;
52674;SDS011;38569;52.722;6.440;2022-12-29T01:04:12;6.22;;;3.67;;
52674;SDS011;38569;52.722;6.440;2022-12-29T01:06:38;4.13;;;3.15;;
52674;SDS011;38569;52.722;6.440;2022-12-29T01:09:05;5.13;;;3.35;;
52674;SDS011;38569;52.722;6.440;2022-12-29T01:11:50;4.15;;;3.47;;
52674;SDS011;38569;52.722;6.440;2022-12-29T01:14:16;5.68;;;3.30;;
52674;SDS011;38569;52.722;6.440;2022-12-29T01:16:42;4.28;;;3.13;;
52674;SDS011;38569;52.722;6.440;2022-12-29T01:19:09;5.05;;;3.63;;
52674;SDS011;38569;52.722;6.440;2022-12-29T01:21:34;4.07;;;2.70;;
52674;SDS011;38569;52.722;6.440;2022-12-29T01:24:00;5.85;;;3.10;;
52674;SDS011;38569;52.722;6.440;2022-12-29T01:26:26;3.67;;;3.28;;
52674;SDS011;38569;52.722;6.440;2022-12-29T01:28:52;4.00;;;2.97;;
52674;SDS011;38569;52.722;6.440;2022-12-29T01:31:18;3.85;;;3.10;;
52674;SDS011;38569;52.722;6.440;2022-12-29T01:33:44;3.50;;;2.97;;
52674;SDS011;38569;52.722;6.440;2022-12-29T01:36:11;4.18;;;3.10;;
52674;SDS011;38569;52.722;6.440;2022-12-29T01:38:39;3.40;;;2.80;;
52674;SDS011;38569;52.722;6.440;2022-12-29T01:41:05;5.05;;;3.20;;
52674;SDS011;38569;52.722;6.440;2022-12-29T01:43:40;5.60;;;3.17;;
52674;SDS011;38569;52.722;6.440;2022-12-29T01:46:19;5.15;;;2.97;;
52674;SDS011;38569;52.722;6.440;2022-12-29T01:51:45;4.32;;;3.20;;
52674;SDS011;38569;52.722;6.440;2022-12-29T01:54:17;4.35;;;3.00;;
52674;SDS011;38569;52.722;6.440;2022-12-29T01:57:03;5.50;;;3.10;;
52674;SDS011;38569;52.722;6.440;2022-12-29T01:59:34;4.50;;;2.90;;
52674;SDS011;38569;52.722;6.440;2022-12-29T02:02:04;3.22;;;2.50;;
52674;SDS011;38569;52.722;6.440;2022-12-29T02:04:31;4.03;;;2.95;;
52674;SDS011;38569;52.722;6.440;2022-12-29T02:07:00;4.32;;;2.40;;
52674;SDS011;38569;52.722;6.440;2022-12-29T02:09:29;3.60;;;2.08;;
52674;SDS011;38569;52.722;6.440;2022-12-29T02:11:55;4.43;;;2.80;;
52674;SDS011;38569;52.722;6.440;2022-12-29T02:14:23;4.70;;;2.58;;
52674;SDS011;38569;52.722;6.440;2022-12-29T02:17:01;5.65;;;2.67;;
52674;SDS011;38569;52.722;6.440;2022-12-29T02:31:06;4.80;;;4.38;;
52674;SDS011;38569;52.722;6.440;2022-12-29T02:38:47;4.65;;;2.47;;
52674;SDS011;38569;52.722;6.440;2022-12-29T02:47:00;3.97;;;2.97;;
52674;SDS011;38569;52.722;6.440;2022-12-29T02:49:38;4.60;;;2.10;;
52674;SDS011;38569;52.722;6.440;2022-12-29T02:52:17;5.15;;;2.75;;
52674;SDS011;38569;52.722;6.440;2022-12-29T02:54:50;3.67;;;2.67;;
52674;SDS011;38569;52.722;6.440;2022-12-29T02:59:48;3.63;;;2.13;;
52674;SDS011;38569;52.722;6.440;2022-12-29T03:05:22;2.47;;;2.22;;
52674;SDS011;38569;52.722;6.440;2022-12-29T03:13:52;3.65;;;2.25;;
52674;SDS011;38569;52.722;6.440;2022-12-29T03:16:50;4.22;;;2.17;;
52674;SDS011;38569;52.722;6.440;2022-12-29T03:19:25;3.97;;;1.75;;
52674;SDS011;38569;52.722;6.440;2022-12-29T03:22:01;3.30;;;1.70;;
52674;SDS011;38569;52.722;6.440;2022-12-29T03:24:49;3.47;;;2.08;;
52674;SDS011;38569;52.722;6.440;2022-12-29T03:27:25;2.50;;;1.52;;
52674;SDS011;38569;52.722;6.440;2022-12-29T03:30:00;3.28;;;1.65;;
52674;SDS011;38569;52.722;6.440;2022-12-29T03:32:31;3.28;;;1.90;;
52674;SDS011;38569;52.722;6.440;2022-12-29T03:35:00;5.55;;;2.00;;
52674;SDS011;38569;52.722;6.440;2022-12-29T03:37:28;3.63;;;1.80;;
52674;SDS011;38569;52.722;6.440;2022-12-29T03:39:59;4.15;;;1.67;;
52674;SDS011;38569;52.722;6.440;2022-12-29T03:42:26;4.68;;;1.77;;
52674;SDS011;38569;52.722;6.440;2022-12-29T03:44:56;5.80;;;1.65;;
52674;SDS011;38569;52.722;6.440;2022-12-29T03:47:22;5.25;;;1.73;;
52674;SDS011;38569;52.722;6.440;2022-12-29T03:49:49;8.07;;;1.55;;
52674;SDS011;38569;52.722;6.440;2022-12-29T03:52:15;3.90;;;1.70;;
52674;SDS011;38569;52.722;6.440;2022-12-29T03:54:41;6.72;;;1.58;;
52674;SDS011;38569;52.722;6.440;2022-12-29T03:57:08;4.18;;;1.83;;
52674;SDS011;38569;52.722;6.440;2022-12-29T03:59:35;9.35;;;2.15;;
52674;SDS011;38569;52.722;6.440;2022-12-29T04:02:00;10.93;;;2.25;;
52674;SDS011;38569;52.722;6.440;2022-12-29T04:04:26;3.45;;;1.70;;
52674;SDS011;38569;52.722;6.440;2022-12-29T04:06:52;9.52;;;2.03;;
52674;SDS011;38569;52.722;6.440;2022-12-29T04:09:18;5.15;;;1.70;;
52674;SDS011;38569;52.722;6.440;2022-12-29T04:11:43;6.15;;;1.52;;
52674;SDS011;38569;52.722;6.440;2022-12-29T04:14:09;4.03;;;1.40;;
52674;SDS011;38569;52.722;6.440;2022-12-29T04:16:35;5.50;;;1.20;;
52674;SDS011;38569;52.722;6.440;2022-12-29T04:19:01;5.63;;;1.65;;
52674;SDS011;38569;52.722;6.440;2022-12-29T04:21:27;8.35;;;1.35;;
52674;SDS011;38569;52.722;6.440;2022-12-29T04:23:53;3.67;;;1.40;;
52674;SDS011;38569;52.722;6.440;2022-12-29T04:26:19;9.63;;;2.33;;
52674;SDS011;38569;52.722;6.440;2022-12-29T04:28:44;6.50;;;1.35;;
52674;SDS011;38569;52.722;6.440;2022-12-29T04:31:10;4.35;;;1.20;;
52674;SDS011;38569;52.722;6.440;2022-12-29T04:33:36;6.72;;;1.20;;
52674;SDS011;38569;52.722;6.440;2022-12-29T04:36:02;8.02;;;1.70;;
52674;SDS011;38569;52.722;6.440;2022-12-29T04:38:28;8.65;;;1.38;;
52674;SDS011;38569;52.722;6.440;2022-12-29T04:40:53;6.07;;;1.70;;
52674;SDS011;38569;52.722;6.440;2022-12-29T04:43:19;8.75;;;1.90;;
52674;SDS011;38569;52.722;6.440;2022-12-29T04:45:47;11.93;;;1.65;;
52674;SDS011;38569;52.722;6.440;2022-12-29T04:48:13;6.28;;;1.90;;
52674;SDS011;38569;52.722;6.440;2022-12-29T04:50:39;4.80;;;1.30;;
52674;SDS011;38569;52.722;6.440;2022-12-29T04:53:05;10.65;;;1.50;;
52674;SDS011;38569;52.722;6.440;2022-12-29T04:55:32;13.05;;;1.85;;
52674;SDS011;38569;52.722;6.440;2022-12-29T04:57:58;5.68;;;1.75;;
52674;SDS011;38569;52.722;6.440;2022-12-29T05:00:23;9.65;;;2.15;;
52674;SDS011;38569;52.722;6.440;2022-12-29T05:02:49;7.80;;;1.50;;
52674;SDS011;38569;52.722;6.440;2022-12-29T05:05:15;4.88;;;1.70;;
52674;SDS011;38569;52.722;6.440;2022-12-29T05:07:41;6.47;;;1.50;;
52674;SDS011;38569;52.722;6.440;2022-12-29T05:10:07;7.40;;;2.28;;
52674;SDS011;38569;52.722;6.440;2022-12-29T05:12:33;5.05;;;1.15;;
52674;SDS011;38569;52.722;6.440;2022-12-29T05:15:00;3.83;;;1.20;;
52674;SDS011;38569;52.722;6.440;2022-12-29T05:17:27;8.93;;;2.28;;
52674;SDS011;38569;52.722;6.440;2022-12-29T05:19:53;4.85;;;1.35;;
52674;SDS011;38569;52.722;6.440;2022-12-29T05:22:19;7.00;;;1.60;;
52674;SDS011;38569;52.722;6.440;2022-12-29T05:24:45;8.30;;;1.60;;
52674;SDS011;38569;52.722;6.440;2022-12-29T05:27:11;8.25;;;1.70;;
52674;SDS011;38569;52.722;6.440;2022-12-29T05:29:37;7.93;;;1.73;;
52674;SDS011;38569;52.722;6.440;2022-12-29T05:32:02;4.82;;;1.30;;
52674;SDS011;38569;52.722;6.440;2022-12-29T05:34:28;5.35;;;1.83;;
52674;SDS011;38569;52.722;6.440;2022-12-29T05:36:54;7.82;;;1.90;;
52674;SDS011;38569;52.722;6.440;2022-12-29T05:39:20;6.60;;;1.40;;
52674;SDS011;38569;52.722;6.440;2022-12-29T05:41:45;8.52;;;3.03;;
52674;SDS011;38569;52.722;6.440;2022-12-29T05:44:11;6.00;;;1.58;;
52674;SDS011;38569;52.722;6.440;2022-12-29T05:46:37;4.68;;;1.70;;
52674;SDS011;38569;52.722;6.440;2022-12-29T05:49:03;5.47;;;1.33;;
52674;SDS011;38569;52.722;6.440;2022-12-29T05:51:29;6.60;;;1.40;;
52674;SDS011;38569;52.722;6.440;2022-12-29T05:53:55;3.67;;;1.35;;
52674;SDS011;38569;52.722;6.440;2022-12-29T05:56:21;5.78;;;1.48;;
52674;SDS011;38569;52.722;6.440;2022-12-29T05:58:47;8.57;;;1.40;;
52674;SDS011;38569;52.722;6.440;2022-12-29T06:01:12;11.38;;;1.83;;
52674;SDS011;38569;52.722;6.440;2022-12-29T06:03:38;10.38;;;1.80;;
52674;SDS011;38569;52.722;6.440;2022-12-29T06:06:04;6.72;;;1.75;;
52674;SDS011;38569;52.722;6.440;2022-12-29T06:08:30;6.78;;;2.00;;
52674;SDS011;38569;52.722;6.440;2022-12-29T06:10:55;6.40;;;1.50;;
52674;SDS011;38569;52.722;6.440;2022-12-29T06:13:21;10.48;;;1.90;;
52674;SDS011;38569;52.722;6.440;2022-12-29T06:15:50;12.32;;;1.80;;
52674;SDS011;38569;52.722;6.440;2022-12-29T06:18:16;8.88;;;2.35;;
52674;SDS011;38569;52.722;6.440;2022-12-29T06:20:42;12.48;;;2.30;;
52674;SDS011;38569;52.722;6.440;2022-12-29T06:23:08;10.23;;;1.80;;
52674;SDS011;38569;52.722;6.440;2022-12-29T06:25:34;7.60;;;2.13;;
52674;SDS011;38569;52.722;6.440;2022-12-29T06:28:01;11.18;;;2.22;;
52674;SDS011;38569;52.722;6.440;2022-12-29T06:30:27;9.98;;;2.15;;
52674;SDS011;38569;52.722;6.440;2022-12-29T06:32:53;9.98;;;2.25;;
52674;SDS011;38569;52.722;6.440;2022-12-29T06:35:20;9.95;;;3.88;;
52674;SDS011;38569;52.722;6.440;2022-12-29T06:37:47;6.25;;;1.65;;
52674;SDS011;38569;52.722;6.440;2022-12-29T06:40:13;7.90;;;1.65;;
52674;SDS011;38569;52.722;6.440;2022-12-29T06:42:39;6.82;;;2.08;;
52674;SDS011;38569;52.722;6.440;2022-12-29T06:45:05;7.20;;;1.80;;
52674;SDS011;38569;52.722;6.440;2022-12-29T06:47:32;10.18;;;1.75;;
52674;SDS011;38569;52.722;6.440;2022-12-29T06:49:59;9.73;;;2.30;;
52674;SDS011;38569;52.722;6.440;2022-12-29T06:52:24;11.43;;;2.95;;
52674;SDS011;38569;52.722;6.440;2022-12-29T06:54:50;13.40;;;2.28;;
52674;SDS011;38569;52.722;6.440;2022-12-29T06:57:16;13.05;;;2.75;;
52674;SDS011;38569;52.722;6.440;2022-12-29T06:59:42;10.13;;;2.17;;
52674;SDS011;38569;52.722;6.440;2022-12-29T07:02:09;11.38;;;3.22;;
52674;SDS011;38569;52.722;6.440;2022-12-29T07:04:35;11.95;;;2.22;;
52674;SDS011;38569;52.722;6.440;2022-12-29T07:07:01;9.80;;;2.97;;
52674;SDS011;38569;52.722;6.440;2022-12-29T07:09:27;15.18;;;3.00;;
52674;SDS011;38569;52.722;6.440;2022-12-29T07:11:53;12.20;;;2.10;;
52674;SDS011;38569;52.722;6.440;2022-12-29T07:14:18;10.07;;;2.60;;
52674;SDS011;38569;52.722;6.440;2022-12-29T07:16:44;11.38;;;2.67;;
52674;SDS011;38569;52.722;6.440;2022-12-29T07:19:10;14.82;;;2.40;;
52674;SDS011;38569;52.722;6.440;2022-12-29T07:21:35;12.43;;;2.67;;
52674;SDS011;38569;52.722;6.440;2022-12-29T07:24:01;14.90;;;2.42;;
52674;SDS011;38569;52.722;6.440;2022-12-29T07:26:27;13.10;;;2.38;;
52674;SDS011;38569;52.722;6.440;2022-12-29T07:28:53;9.52;;;2.40;;
52674;SDS011;38569;52.722;6.440;2022-12-29T07:31:20;16.75;;;3.20;;
52674;SDS011;38569;52.722;6.440;2022-12-29T07:33:47;11.23;;;2.30;;
52674;SDS011;38569;52.722;6.440;2022-12-29T07:36:13;10.20;;;2.50;;
52674;SDS011;38569;52.722;6.440;2022-12-29T07:38:40;13.50;;;2.72;;
52674;SDS011;38569;52.722;6.440;2022-12-29T07:41:06;12.27;;;2.85;;
52674;SDS011;38569;52.722;6.440;2022-12-29T07:43:32;9.32;;;2.10;;
52674;SDS011;38569;52.722;6.440;2022-12-29T07:45:58;13.57;;;2.50;;
52674;SDS011;38569;52.722;6.440;2022-12-29T07:48:23;10.38;;;2.05;;
52674;SDS011;38569;52.722;6.440;2022-12-29T07:50:49;11.25;;;3.53;;
52674;SDS011;38569;52.722;6.440;2022-12-29T07:53:15;12.57;;;3.95;;
52674;SDS011;38569;52.722;6.440;2022-12-29T07:55:41;10.25;;;2.20;;
52674;SDS011;38569;52.722;6.440;2022-12-29T07:58:06;12.02;;;2.95;;
52674;SDS011;38569;52.722;6.440;2022-12-29T08:00:32;14.93;;;2.67;;
52674;SDS011;38569;52.722;6.440;2022-12-29T08:02:58;15.85;;;3.50;;
52674;SDS011;38569;52.722;6.440;2022-12-29T08:05:24;13.85;;;3.13;;
52674;SDS011;38569;52.722;6.440;2022-12-29T08:07:50;13.48;;;3.15;;
52674;SDS011;38569;52.722;6.440;2022-12-29T08:10:16;12.00;;;2.60;;
52674;SDS011;38569;52.722;6.440;2022-12-29T08:12:42;14.05;;;2.92;;
52674;SDS011;38569;52.722;6.440;2022-12-29T08:15:09;14.88;;;4.03;;
52674;SDS011;38569;52.722;6.440;2022-12-29T08:17:36;15.50;;;2.60;;
52674;SDS011;38569;52.722;6.440;2022-12-29T08:20:02;15.57;;;4.00;;
52674;SDS011;38569;52.722;6.440;2022-12-29T08:22:28;19.60;;;3.53;;
52674;SDS011;38569;52.722;6.440;2022-12-29T08:24:54;11.55;;;3.55;;
52674;SDS011;38569;52.722;6.440;2022-12-29T08:27:20;14.85;;;3.00;;
52674;SDS011;38569;52.722;6.440;2022-12-29T08:29:46;13.68;;;2.70;;
52674;SDS011;38569;52.722;6.440;2022-12-29T08:32:11;10.45;;;2.00;;
52674;SDS011;38569;52.722;6.440;2022-12-29T08:34:37;14.57;;;4.38;;
52674;SDS011;38569;52.722;6.440;2022-12-29T08:37:03;13.57;;;3.00;;
52674;SDS011;38569;52.722;6.440;2022-12-29T08:39:29;9.18;;;2.85;;
52674;SDS011;38569;52.722;6.440;2022-12-29T08:41:55;8.40;;;2.30;;
52674;SDS011;38569;52.722;6.440;2022-12-29T08:44:20;10.65;;;2.50;;
52674;SDS011;38569;52.722;6.440;2022-12-29T08:46:46;10.75;;;2.28;;
52674;SDS011;38569;52.722;6.440;2022-12-29T08:49:12;17.95;;;3.30;;
52674;SDS011;38569;52.722;6.440;2022-12-29T08:51:38;12.75;;;2.55;;
52674;SDS011;38569;52.722;6.440;2022-12-29T08:54:04;13.38;;;3.80;;
52674;SDS011;38569;52.722;6.440;2022-12-29T08:56:30;12.55;;;2.58;;
52674;SDS011;38569;52.722;6.440;2022-12-29T08:58:55;8.80;;;2.55;;
52674;SDS011;38569;52.722;6.440;2022-12-29T09:01:21;14.82;;;3.30;;
52674;SDS011;38569;52.722;6.440;2022-12-29T09:03:47;10.38;;;2.60;;
52674;SDS011;38569;52.722;6.440;2022-12-29T09:06:14;10.48;;;2.72;;
52674;SDS011;38569;52.722;6.440;2022-12-29T09:08:41;16.15;;;2.15;;
52674;SDS011;38569;52.722;6.440;2022-12-29T09:13:38;11.73;;;3.05;;
52674;SDS011;38569;52.722;6.440;2022-12-29T09:16:04;11.93;;;2.83;;
52674;SDS011;38569;52.722;6.440;2022-12-29T09:18:30;11.73;;;2.72;;
52674;SDS011;38569;52.722;6.440;2022-12-29T09:21:00;13.20;;;2.25;;
52674;SDS011;38569;52.722;6.440;2022-12-29T09:23:27;12.10;;;2.35;;
52674;SDS011;38569;52.722;6.440;2022-12-29T09:25:53;12.30;;;2.92;;
52674;SDS011;38569;52.722;6.440;2022-12-29T09:28:19;10.43;;;2.42;;
52674;SDS011;38569;52.722;6.440;2022-12-29T09:30:46;11.10;;;3.22;;
52674;SDS011;38569;52.722;6.440;2022-12-29T09:33:12;9.75;;;2.45;;
52674;SDS011;38569;52.722;6.440;2022-12-29T09:35:41;13.15;;;2.65;;
52674;SDS011;38569;52.722;6.440;2022-12-29T09:38:08;16.75;;;2.65;;
52674;SDS011;38569;52.722;6.440;2022-12-29T09:40:34;10.13;;;2.67;;
52674;SDS011;38569;52.722;6.440;2022-12-29T09:48:15;10.88;;;2.45;;
52674;SDS011;38569;52.722;6.440;2022-12-29T09:53:19;11.90;;;2.78;;
52674;SDS011;38569;52.722;6.440;2022-12-29T09:55:52;14.35;;;2.65;;
52674;SDS011;38569;52.722;6.440;2022-12-29T10:01:04;9.30;;;2.50;;
52674;SDS011;38569;52.722;6.440;2022-12-29T10:03:46;14.32;;;2.97;;
52674;SDS011;38569;52.722;6.440;2022-12-29T10:06:20;12.27;;;2.83;;
52674;SDS011;38569;52.722;6.440;2022-12-29T10:09:22;14.02;;;2.80;;
52674;SDS011;38569;52.722;6.440;2022-12-29T10:12:04;15.88;;;3.22;;
52674;SDS011;38569;52.722;6.440;2022-12-29T10:17:41;11.45;;;3.35;;
52674;SDS011;38569;52.722;6.440;2022-12-29T10:20:24;17.83;;;3.58;;
52674;SDS011;38569;52.722;6.440;2022-12-29T10:23:05;14.68;;;4.07;;
52674;SDS011;38569;52.722;6.440;2022-12-29T10:25:39;12.27;;;2.50;;
52674;SDS011;38569;52.722;6.440;2022-12-29T10:28:19;10.63;;;2.58;;
52674;SDS011;38569;52.722;6.440;2022-12-29T10:31:07;13.13;;;2.72;;
52674;SDS011;38569;52.722;6.440;2022-12-29T10:33:39;10.88;;;2.20;;
52674;SDS011;38569;52.722;6.440;2022-12-29T10:36:28;16.48;;;2.45;;
52674;SDS011;38569;52.722;6.440;2022-12-29T10:39:58;10.10;;;2.60;;
52674;SDS011;38569;52.722;6.440;2022-12-29T10:44:40;7.70;;;2.38;;
52674;SDS011;38569;52.722;6.440;2022-12-29T10:47:11;9.68;;;3.47;;
52674;SDS011;38569;52.722;6.440;2022-12-29T10:49:42;12.00;;;2.75;;
52674;SDS011;38569;52.722;6.440;2022-12-29T10:52:10;10.77;;;3.13;;
52674;SDS011;38569;52.722;6.440;2022-12-29T10:54:39;11.90;;;2.20;;
52674;SDS011;38569;52.722;6.440;2022-12-29T10:57:36;9.48;;;2.30;;
52674;SDS011;38569;52.722;6.440;2022-12-29T11:00:10;7.90;;;2.42;;
52674;SDS011;38569;52.722;6.440;2022-12-29T11:02:58;7.88;;;1.80;;
52674;SDS011;38569;52.722;6.440;2022-12-29T11:08:32;11.13;;;2.20;;
52674;SDS011;38569;52.722;6.440;2022-12-29T11:11:05;11.80;;;2.33;;
52674;SDS011;38569;52.722;6.440;2022-12-29T11:13:46;12.05;;;2.85;;
52674;SDS011;38569;52.722;6.440;2022-12-29T11:16:13;11.50;;;3.05;;
52674;SDS011;38569;52.722;6.440;2022-12-29T11:18:40;16.65;;;2.90;;
52674;SDS011;38569;52.722;6.440;2022-12-29T11:24:21;13.32;;;2.88;;
52674;SDS011;38569;52.722;6.440;2022-12-29T11:26:48;12.57;;;3.40;;
52674;SDS011;38569;52.722;6.440;2022-12-29T11:29:25;13.48;;;3.25;;
52674;SDS011;38569;52.722;6.440;2022-12-29T11:32:04;13.88;;;3.05;;
52674;SDS011;38569;52.722;6.440;2022-12-29T11:34:43;17.83;;;3.58;;
52674;SDS011;38569;52.722;6.440;2022-12-29T11:37:18;14.52;;;3.78;;
52674;SDS011;38569;52.722;6.440;2022-12-29T11:39:51;13.77;;;3.35;;
52674;SDS011;38569;52.722;6.440;2022-12-29T11:42:33;18.75;;;3.83;;
52674;SDS011;38569;52.722;6.440;2022-12-29T11:45:06;16.05;;;2.97;;
52674;SDS011;38569;52.722;6.440;2022-12-29T11:47:32;15.98;;;3.17;;
52674;SDS011;38569;52.722;6.440;2022-12-29T11:50:00;11.32;;;3.35;;
52674;SDS011;38569;52.722;6.440;2022-12-29T11:52:30;16.40;;;3.83;;
52674;SDS011;38569;52.722;6.440;2022-12-29T11:55:00;15.82;;;3.60;;
52674;SDS011;38569;52.722;6.440;2022-12-29T11:57:29;16.88;;;4.57;;
52674;SDS011;38569;52.722;6.440;2022-12-29T11:59:58;11.48;;;3.00;;
52674;SDS011;38569;52.722;6.440;2022-12-29T12:05:19;11.07;;;3.45;;
52674;SDS011;38569;52.722;6.440;2022-12-29T12:07:56;14.27;;;3.63;;
52674;SDS011;38569;52.722;6.440;2022-12-29T12:10:50;20.45;;;4.50;;
52674;SDS011;38569;52.722;6.440;2022-12-29T12:13:37;12.13;;;3.28;;
52674;SDS011;38569;52.722;6.440;2022-12-29T12:16:09;22.25;;;5.65;;
52674;SDS011;38569;52.722;6.440;2022-12-29T12:21:30;13.70;;;3.28;;
52674;SDS011;38569;52.722;6.440;2022-12-29T12:24:13;11.43;;;2.70;;
52674;SDS011;38569;52.722;6.440;2022-12-29T12:26:55;14.93;;;3.20;;
52674;SDS011;38569;52.722;6.440;2022-12-29T12:35:25;18.13;;;3.15;;
52674;SDS011;38569;52.722;6.440;2022-12-29T12:38:00;15.35;;;3.42;;
52674;SDS011;38569;52.722;6.440;2022-12-29T12:54:11;27.23;;;4.70;;
52674;SDS011;38569;52.722;6.440;2022-12-29T13:08:06;27.80;;;4.78;;
52674;SDS011;38569;52.722;6.440;2022-12-29T13:11:08;26.08;;;4.40;;
52674;SDS011;38569;52.722;6.440;2022-12-29T13:14:11;24.65;;;4.95;;
52674;SDS011;38569;52.722;6.440;2022-12-29T13:16:52;23.63;;;6.07;;
52674;SDS011;38569;52.722;6.440;2022-12-29T13:28:17;16.77;;;4.07;;
52674;SDS011;38569;52.722;6.440;2022-12-29T13:31:00;19.63;;;3.42;;
52674;SDS011;38569;52.722;6.440;2022-12-29T13:36:27;17.33;;;3.78;;
52674;SDS011;38569;52.722;6.440;2022-12-29T13:39:06;18.98;;;4.07;;
52674;SDS011;38569;52.722;6.440;2022-12-29T13:41:39;26.05;;;4.53;;
52674;SDS011;38569;52.722;6.440;2022-12-29T13:44:17;23.17;;;3.90;;
52674;SDS011;38569;52.722;6.440;2022-12-29T13:46:48;20.50;;;4.68;;
52674;SDS011;38569;52.722;6.440;2022-12-29T13:49:18;24.70;;;3.90;;
52674;SDS011;38569;52.722;6.440;2022-12-29T13:51:54;17.73;;;4.15;;
52674;SDS011;38569;52.722;6.440;2022-12-29T13:57:03;16.20;;;3.78;;
52674;SDS011;38569;52.722;6.440;2022-12-29T14:02:29;21.02;;;4.75;;
52674;SDS011;38569;52.722;6.440;2022-12-29T14:05:26;23.15;;;4.32;;
52674;SDS011;38569;52.722;6.440;2022-12-29T14:07:49;20.67;;;4.07;;
52674;SDS011;38569;52.722;6.440;2022-12-29T14:10:34;21.88;;;4.38;;
52674;SDS011;38569;52.722;6.440;2022-12-29T14:15:40;17.00;;;3.60;;
52674;SDS011;38569;52.722;6.440;2022-12-29T14:18:17;18.40;;;3.45;;
52674;SDS011;38569;52.722;6.440;2022-12-29T14:20:48;14.07;;;4.03;;
52674;SDS011;38569;52.722;6.440;2022-12-29T14:23:36;20.85;;;4.30;;
52674;SDS011;38569;52.722;6.440;2022-12-29T14:28:34;15.20;;;3.03;;
52674;SDS011;38569;52.722;6.440;2022-12-29T14:33:40;17.02;;;3.22;;
52674;SDS011;38569;52.722;6.440;2022-12-29T14:36:29;16.20;;;4.40;;
52674;SDS011;38569;52.722;6.440;2022-12-29T14:38:59;17.98;;;3.53;;
52674;SDS011;38569;52.722;6.440;2022-12-29T14:41:30;17.90;;;4.32;;
52674;SDS011;38569;52.722;6.440;2022-12-29T14:44:19;16.52;;;3.97;;
52674;SDS011;38569;52.722;6.440;2022-12-29T14:49:22;10.35;;;2.55;;
52674;SDS011;38569;52.722;6.440;2022-12-29T14:57:04;18.13;;;3.40;;
52674;SDS011;38569;52.722;6.440;2022-12-29T14:59:32;13.88;;;3.72;;
52674;SDS011;38569;52.722;6.440;2022-12-29T15:02:00;30.75;;;5.22;;
52674;SDS011;38569;52.722;6.440;2022-12-29T15:04:33;13.70;;;3.75;;
52674;SDS011;38569;52.722;6.440;2022-12-29T15:07:00;11.95;;;3.30;;
52674;SDS011;38569;52.722;6.440;2022-12-29T15:09:33;17.50;;;3.92;;
52674;SDS011;38569;52.722;6.440;2022-12-29T15:14:57;20.85;;;6.72;;
52674;SDS011;38569;52.722;6.440;2022-12-29T15:17:25;15.13;;;3.42;;
52674;SDS011;38569;52.722;6.440;2022-12-29T15:19:56;17.25;;;3.35;;
52674;SDS011;38569;52.722;6.440;2022-12-29T15:22:23;19.23;;;4.07;;
52674;SDS011;38569;52.722;6.440;2022-12-29T15:24:50;17.55;;;3.35;;
52674;SDS011;38569;52.722;6.440;2022-12-29T15:27:21;16.15;;;3.60;;
52674;SDS011;38569;52.722;6.440;2022-12-29T15:29:59;10.00;;;3.72;;
52674;SDS011;38569;52.722;6.440;2022-12-29T15:32:42;15.18;;;3.20;;
52674;SDS011;38569;52.722;6.440;2022-12-29T15:37:47;16.27;;;3.38;;
52674;SDS011;38569;52.722;6.440;2022-12-29T15:40:31;16.48;;;4.00;;
52674;SDS011;38569;52.722;6.440;2022-12-29T15:43:05;21.25;;;4.25;;
52674;SDS011;38569;52.722;6.440;2022-12-29T15:45:43;17.95;;;3.95;;
52674;SDS011;38569;52.722;6.440;2022-12-29T15:48:13;19.02;;;4.00;;
52674;SDS011;38569;52.722;6.440;2022-12-29T15:50:44;16.75;;;4.50;;
52674;SDS011;38569;52.722;6.440;2022-12-29T15:53:12;20.67;;;8.40;;
52674;SDS011;38569;52.722;6.440;2022-12-29T15:55:54;24.00;;;8.02;;
52674;SDS011;38569;52.722;6.440;2022-12-29T15:58:39;20.20;;;4.32;;
52674;SDS011;38569;52.722;6.440;2022-12-29T16:01:16;10.13;;;2.65;;
52674;SDS011;38569;52.722;6.440;2022-12-29T16:03:45;14.57;;;2.67;;
52674;SDS011;38569;52.722;6.440;2022-12-29T16:06:29;9.70;;;2.60;;
52674;SDS011;38569;52.722;6.440;2022-12-29T16:11:32;16.00;;;3.35;;
52674;SDS011;38569;52.722;6.440;2022-12-29T16:13:59;11.57;;;4.82;;
52674;SDS011;38569;52.722;6.440;2022-12-29T16:16:30;11.25;;;2.72;;
52674;SDS011;38569;52.722;6.440;2022-12-29T16:18:59;9.25;;;2.90;;
52674;SDS011;38569;52.722;6.440;2022-12-29T16:21:32;8.60;;;2.72;;
52674;SDS011;38569;52.722;6.440;2022-12-29T16:24:02;14.35;;;3.42;;
52674;SDS011;38569;52.722;6.440;2022-12-29T16:26:33;8.38;;;2.40;;
52674;SDS011;38569;52.722;6.440;2022-12-29T16:29:00;6.07;;;2.33;;
52674;SDS011;38569;52.722;6.440;2022-12-29T16:31:49;24.45;;;5.03;;
52674;SDS011;38569;52.722;6.440;2022-12-29T16:36:59;7.53;;;2.75;;
52674;SDS011;38569;52.722;6.440;2022-12-29T16:41:53;6.35;;;2.30;;
52674;SDS011;38569;52.722;6.440;2022-12-29T16:52:00;10.35;;;2.83;;
52674;SDS011;38569;52.722;6.440;2022-12-29T16:54:36;8.93;;;3.00;;
52674;SDS011;38569;52.722;6.440;2022-12-29T16:57:03;14.00;;;2.95;;
52674;SDS011;38569;52.722;6.440;2022-12-29T16:59:35;15.48;;;5.20;;
52674;SDS011;38569;52.722;6.440;2022-12-29T17:02:14;11.20;;;3.35;;
52674;SDS011;38569;52.722;6.440;2022-12-29T17:04:44;9.95;;;3.13;;
52674;SDS011;38569;52.722;6.440;2022-12-29T17:07:20;11.63;;;3.92;;
52674;SDS011;38569;52.722;6.440;2022-12-29T17:09:47;10.38;;;3.35;;
52674;SDS011;38569;52.722;6.440;2022-12-29T17:12:16;14.68;;;3.55;;
52674;SDS011;38569;52.722;6.440;2022-12-29T17:14:45;10.95;;;2.95;;
52674;SDS011;38569;52.722;6.440;2022-12-29T17:17:17;10.60;;;3.10;;
52674;SDS011;38569;52.722;6.440;2022-12-29T17:19:49;11.20;;;4.05;;
52674;SDS011;38569;52.722;6.440;2022-12-29T17:22:21;15.88;;;4.57;;
52674;SDS011;38569;52.722;6.440;2022-12-29T17:24:50;12.77;;;4.65;;
52674;SDS011;38569;52.722;6.440;2022-12-29T17:27:21;9.20;;;4.00;;
52674;SDS011;38569;52.722;6.440;2022-12-29T17:29:55;11.73;;;3.37;;
52674;SDS011;38569;52.722;6.440;2022-12-29T17:32:23;11.18;;;4.40;;
52674;SDS011;38569;52.722;6.440;2022-12-29T17:34:49;8.55;;;3.90;;
52674;SDS011;38569;52.722;6.440;2022-12-29T17:39:53;12.40;;;4.78;;
52674;SDS011;38569;52.722;6.440;2022-12-29T17:42:19;8.80;;;4.07;;